Time;durP1;ratioP1;P1;durP2;ratioP2;P2;SDS_P1;SDS_P2;PMS_P1;PMS_P2;Temp;Humidity;BMP_temperature;BMP_pressure;BME280_temperature;BME280_humidity;BME280_pressure;Samples;Min_cycle;Max_cycle;Signal;HPM_P1;HPM_P2
2023/12/11 00:00:46;;;;;;;37.53;5.25;;;8.60;99.90;;;;;;5038490;28;20456;-67
2023/12/11 00:03:12;;;;;;;36.08;4.68;;;8.50;99.90;;;;;;5043526;28;20053;-67
2023/12/11 00:05:38;;;;;;;33.88;4.65;;;8.50;99.90;;;;;;5031531;28;20049;-67
2023/12/11 00:08:05;;;;;;;40.97;4.85;;;8.50;99.90;;;;;;5027179;28;20060;-67
2023/12/11 00:10:31;;;;;;;34.70;4.63;;;8.50;99.90;;;;;;5029744;28;20058;-68
2023/12/11 00:12:57;;;;;;;44.13;6.28;;;8.50;99.90;;;;;;5027643;28;20049;-66
2023/12/11 00:15:22;;;;;;;40.70;4.60;;;8.40;99.90;;;;;;5028163;28;20045;-67
2023/12/11 00:17:48;;;;;;;42.35;5.40;;;8.40;99.90;;;;;;5028048;28;20041;-67
2023/12/11 00:20:14;;;;;;;30.90;4.68;;;8.40;99.90;;;;;;5028968;28;20048;-67
2023/12/11 00:22:43;;;;;;;41.58;6.28;;;8.40;99.90;;;;;;5047156;28;20045;-67
2023/12/11 00:25:10;;;;;;;46.45;5.57;;;8.40;99.90;;;;;;5052041;28;20101;-67
2023/12/11 00:27:36;;;;;;;53.65;5.38;;;8.40;99.90;;;;;;5039569;28;20050;-67
2023/12/11 00:30:02;;;;;;;42.25;6.18;;;8.40;99.90;;;;;;5026840;28;20044;-67
2023/12/11 00:32:28;;;;;;;44.38;5.80;;;8.40;99.90;;;;;;5039486;28;20115;-67
2023/12/11 00:34:54;;;;;;;45.95;5.93;;;8.40;99.90;;;;;;5040812;28;20057;-67
2023/12/11 00:37:22;;;;;;;48.03;6.85;;;8.40;99.90;;;;;;5034558;28;20042;-67
2023/12/11 00:39:48;;;;;;;50.58;6.30;;;8.40;99.90;;;;;;5039713;28;20726;-67
2023/12/11 00:42:14;;;;;;;50.42;5.88;;;8.40;99.90;;;;;;5044434;28;20107;-66
2023/12/11 00:44:39;;;;;;;47.15;6.18;;;8.40;99.90;;;;;;5027491;28;20041;-70
2023/12/11 00:47:05;;;;;;;48.53;6.75;;;8.50;99.90;;;;;;5028217;28;20387;-67
2023/12/11 00:49:31;;;;;;;56.55;6.35;;;8.40;99.90;;;;;;5030211;28;20041;-67
2023/12/11 00:51:57;;;;;;;42.88;5.97;;;8.50;99.90;;;;;;5029628;28;20452;-67
2023/12/11 00:54:23;;;;;;;48.60;5.97;;;8.40;99.90;;;;;;5029863;28;20048;-66
2023/12/11 00:56:49;;;;;;;46.90;6.43;;;8.50;99.90;;;;;;5035404;28;20509;-67
2023/12/11 00:59:15;;;;;;;50.38;6.00;;;8.40;99.90;;;;;;5033809;28;20049;-67
2023/12/11 01:01:41;;;;;;;50.05;5.95;;;8.50;99.90;;;;;;5028085;28;20046;-67
2023/12/11 01:04:08;;;;;;;33.95;5.55;;;8.40;99.90;;;;;;5010816;28;20045;-67
2023/12/11 01:06:33;;;;;;;42.95;6.25;;;8.50;99.90;;;;;;5026455;28;20046;-67
2023/12/11 01:08:59;;;;;;;40.30;4.82;;;8.50;99.90;;;;;;5010248;28;20279;-67
2023/12/11 01:11:25;;;;;;;46.72;6.50;;;8.50;99.90;;;;;;5031080;28;20041;-68
2023/12/11 01:13:51;;;;;;;52.33;6.65;;;8.50;99.90;;;;;;5026104;28;20063;-68
2023/12/11 01:16:17;;;;;;;55.83;6.15;;;8.50;99.90;;;;;;5026420;28;20454;-68
2023/12/11 01:18:42;;;;;;;49.70;5.55;;;8.60;99.90;;;;;;5017257;28;20047;-68
2023/12/11 01:21:08;;;;;;;45.45;6.10;;;8.50;99.90;;;;;;5055727;28;20036;-68
2023/12/11 01:23:34;;;;;;;46.38;5.45;;;8.60;99.90;;;;;;5051060;28;20060;-68
2023/12/11 01:26:00;;;;;;;46.60;5.93;;;8.60;99.90;;;;;;5050961;28;20071;-68
2023/12/11 01:28:26;;;;;;;46.95;5.78;;;8.60;99.90;;;;;;5044525;28;20053;-67
2023/12/11 01:30:51;;;;;;;40.22;5.55;;;8.60;99.90;;;;;;5059823;28;20048;-67
2023/12/11 01:33:17;;;;;;;46.08;5.47;;;8.60;99.90;;;;;;5047294;28;20037;-67
2023/12/11 01:35:43;;;;;;;41.00;6.03;;;8.60;99.90;;;;;;5061995;28;20045;-67
2023/12/11 01:38:08;;;;;;;40.47;5.47;;;8.60;99.90;;;;;;5050783;28;20041;-67
2023/12/11 01:40:34;;;;;;;47.38;4.88;;;8.60;99.90;;;;;;5048413;28;20076;-67
2023/12/11 01:43:14;;;;;;;42.45;4.65;;;8.60;99.90;;;;;;5052484;28;20488;-67
2023/12/11 01:45:40;;;;;;;38.70;5.82;;;8.60;99.90;;;;;;5047587;28;20049;-67
2023/12/11 01:48:07;;;;;;;48.17;6.03;;;8.60;99.90;;;;;;5050720;28;20087;-67
2023/12/11 01:50:33;;;;;;;46.17;5.40;;;8.60;99.90;;;;;;5046347;28;20045;-67
2023/12/11 01:53:00;;;;;;;37.88;5.28;;;8.60;99.90;;;;;;5035553;28;20041;-67
2023/12/11 01:55:26;;;;;;;46.42;5.22;;;9.00;99.90;;;;;;5033357;28;20220;-68
2023/12/11 01:57:53;;;;;;;40.70;5.28;;;8.60;99.90;;;;;;5035418;28;20053;-67
2023/12/11 02:00:19;;;;;;;46.10;5.05;;;8.60;99.90;;;;;;5049717;28;20042;-67
2023/12/11 02:02:45;;;;;;;39.90;5.75;;;8.60;99.90;;;;;;5032143;28;20263;-67
2023/12/11 02:05:11;;;;;;;39.75;5.32;;;8.60;99.90;;;;;;5031943;28;20465;-66
2023/12/11 02:07:41;;;;;;;37.35;5.32;;;8.60;99.90;;;;;;5032362;28;20080;-66
2023/12/11 02:10:07;;;;;;;34.05;5.03;;;8.60;99.90;;;;;;5033411;28;20111;-66
2023/12/11 02:12:33;;;;;;;36.70;4.78;;;8.70;99.90;;;;;;5032013;28;20160;-66
2023/12/11 02:14:59;;;;;;;39.63;4.95;;;8.60;99.90;;;;;;5023439;28;20103;-66
2023/12/11 02:17:25;;;;;;;37.75;6.22;;;8.60;99.90;;;;;;5029962;28;20585;-66
2023/12/11 02:19:51;;;;;;;40.70;6.82;;;8.60;99.90;;;;;;5015969;28;20051;-67
2023/12/11 02:22:17;;;;;;;48.95;5.63;;;8.60;99.90;;;;;;5030277;28;20041;-67
2023/12/11 02:24:49;;;;;;;49.53;5.05;;;8.60;99.90;;;;;;5017150;28;20503;-67
2023/12/11 02:27:15;;;;;;;45.65;5.95;;;8.60;99.90;;;;;;5024549;28;20049;-67
2023/12/11 02:29:41;;;;;;;40.83;5.60;;;8.60;99.90;;;;;;5024953;28;20049;-66
2023/12/11 02:32:07;;;;;;;39.53;5.47;;;8.60;99.90;;;;;;5039074;28;20037;-67
2023/12/11 02:34:33;;;;;;;47.35;6.07;;;8.60;99.90;;;;;;5029600;28;20811;-66
2023/12/11 02:36:59;;;;;;;43.85;6.30;;;8.60;99.90;;;;;;5041364;28;20140;-66
2023/12/11 02:39:24;;;;;;;46.85;5.65;;;8.60;99.90;;;;;;5032095;28;20045;-66
2023/12/11 02:41:50;;;;;;;50.22;6.63;;;8.60;99.90;;;;;;5032316;28;20132;-66
2023/12/11 02:44:16;;;;;;;53.60;7.35;;;8.60;99.90;;;;;;5039695;28;20033;-66
2023/12/11 02:46:42;;;;;;;45.50;6.35;;;8.70;99.90;;;;;;5039177;28;20056;-66
2023/12/11 02:49:08;;;;;;;54.50;5.88;;;8.60;99.90;;;;;;5024588;28;20048;-66
2023/12/11 02:51:33;;;;;;;51.25;6.55;;;8.70;99.90;;;;;;5024954;28;20049;-66
2023/12/11 02:53:59;;;;;;;43.03;7.35;;;8.70;99.90;;;;;;5026806;28;20124;-67
2023/12/11 02:56:25;;;;;;;54.50;6.60;;;8.70;99.90;;;;;;5008092;28;20041;-66
2023/12/11 02:58:51;;;;;;;50.53;7.00;;;8.70;99.90;;;;;;5032643;28;20510;-66
2023/12/11 03:01:16;;;;;;;53.42;6.15;;;8.70;99.90;;;;;;5039294;28;20048;-66
2023/12/11 03:03:42;;;;;;;46.42;5.82;;;8.70;99.90;;;;;;5040124;28;20040;-66
2023/12/11 03:06:17;;;;;;;59.45;6.22;;;8.70;99.90;;;;;;5033549;28;20053;-66
2023/12/11 03:08:43;;;;;;;42.25;5.88;;;8.70;99.90;;;;;;5040879;28;20722;-66
2023/12/11 03:11:10;;;;;;;53.28;5.60;;;8.70;99.90;;;;;;5046704;28;20151;-67
2023/12/11 03:13:35;;;;;;;58.10;7.00;;;8.70;99.90;;;;;;5054723;28;20052;-66
2023/12/11 03:16:01;;;;;;;55.25;7.07;;;8.70;99.90;;;;;;5023372;28;20094;-66
2023/12/11 03:18:27;;;;;;;55.45;6.75;;;8.70;99.90;;;;;;5031441;28;20529;-68
2023/12/11 03:20:53;;;;;;;59.20;6.85;;;8.70;99.90;;;;;;5034655;28;20072;-66
2023/12/11 03:23:18;;;;;;;56.38;7.15;;;8.70;99.90;;;;;;5039386;28;20034;-66
2023/12/11 03:25:44;;;;;;;50.42;6.70;;;8.70;99.90;;;;;;5031238;28;20521;-66
2023/12/11 03:28:10;;;;;;;58.45;6.90;;;8.70;99.90;;;;;;5017769;28;20056;-66
2023/12/11 03:30:36;;;;;;;58.75;6.50;;;8.70;99.90;;;;;;5037971;28;20073;-66
2023/12/11 03:33:01;;;;;;;45.03;6.15;;;8.70;99.90;;;;;;5040975;28;20055;-65
2023/12/11 03:35:27;;;;;;;43.90;5.88;;;8.70;99.90;;;;;;5045064;28;20037;-69
2023/12/11 03:37:53;;;;;;;53.28;6.32;;;8.70;99.90;;;;;;5031789;28;20037;-66
2023/12/11 03:40:19;;;;;;;42.92;6.03;;;8.70;99.90;;;;;;5036502;28;20041;-66
2023/12/11 03:42:44;;;;;;;50.72;6.85;;;8.80;99.90;;;;;;5038511;28;20910;-66
2023/12/11 03:45:10;;;;;;;41.28;6.00;;;8.70;99.90;;;;;;5032529;28;20052;-65
2023/12/11 03:47:36;;;;;;;54.92;8.60;;;8.80;99.90;;;;;;5033268;28;20104;-66
2023/12/11 03:50:02;;;;;;;58.00;7.70;;;8.80;99.90;;;;;;5055259;28;20494;-65
2023/12/11 03:52:27;;;;;;;50.47;7.78;;;8.80;99.90;;;;;;5035324;28;20056;-65
2023/12/11 03:54:53;;;;;;;59.25;6.85;;;8.80;99.90;;;;;;5038816;28;20067;-66
2023/12/11 03:57:19;;;;;;;52.50;6.47;;;8.80;99.90;;;;;;5029235;28;20490;-66
2023/12/11 03:59:45;;;;;;;65.55;7.38;;;8.80;99.90;;;;;;5028470;28;20080;-66
2023/12/11 04:02:11;;;;;;;51.17;6.53;;;8.80;99.90;;;;;;5039720;28;20433;-66
2023/12/11 04:04:36;;;;;;;62.60;7.47;;;8.80;99.90;;;;;;5060606;28;20139;-66
2023/12/11 04:07:03;;;;;;;53.40;7.50;;;8.80;99.90;;;;;;5041486;28;20045;-65
2023/12/11 04:09:28;;;;;;;48.25;6.70;;;8.80;99.90;;;;;;5021389;28;20048;-66
2023/12/11 04:11:54;;;;;;;46.67;6.72;;;8.80;99.90;;;;;;5042575;28;20502;-65
2023/12/11 04:14:20;;;;;;;58.58;6.75;;;8.80;99.90;;;;;;5030181;28;20143;-67
2023/12/11 04:16:46;;;;;;;51.97;6.85;;;8.80;99.90;;;;;;5032895;28;20088;-66
2023/12/11 04:19:12;;;;;;;56.17;7.68;;;8.80;99.90;;;;;;5044209;28;20490;-66
2023/12/11 04:21:38;;;;;;;52.72;8.27;;;8.80;99.90;;;;;;5027946;28;20138;-66
2023/12/11 04:24:04;;;;;;;49.17;6.80;;;8.80;99.90;;;;;;5035968;28;20072;-66
2023/12/11 04:26:30;;;;;;;60.15;7.30;;;8.90;99.90;;;;;;5029418;28;20087;-66
2023/12/11 04:28:56;;;;;;;50.83;6.65;;;8.80;99.90;;;;;;5020887;28;20072;-65
2023/12/11 04:31:23;;;;;;;51.45;6.45;;;8.80;99.90;;;;;;5031864;28;20513;-66
2023/12/11 04:33:50;;;;;;;54.30;7.13;;;8.90;99.90;;;;;;5034286;28;20045;-66
2023/12/11 04:36:18;;;;;;;50.53;6.35;;;8.90;99.90;;;;;;5032720;28;20045;-66
2023/12/11 04:38:44;;;;;;;43.25;6.30;;;8.80;99.90;;;;;;5041730;28;20395;-66
2023/12/11 04:41:10;;;;;;;49.50;6.57;;;8.80;99.90;;;;;;5039145;28;20152;-66
2023/12/11 04:43:36;;;;;;;51.67;6.63;;;8.80;99.90;;;;;;5039536;28;20052;-66
2023/12/11 04:46:02;;;;;;;40.70;5.35;;;8.80;99.90;;;;;;5025825;28;20049;-66
2023/12/11 04:48:28;;;;;;;48.03;6.22;;;8.80;99.90;;;;;;5032322;28;20454;-66
2023/12/11 04:50:54;;;;;;;53.15;5.72;;;8.80;99.90;;;;;;5038753;28;20046;-66
2023/12/11 04:53:20;;;;;;;43.20;5.78;;;8.80;99.90;;;;;;5027268;28;20106;-68
2023/12/11 04:55:45;;;;;;;40.67;6.88;;;8.80;99.90;;;;;;5032124;28;20175;-67
2023/12/11 04:58:11;;;;;;;47.30;6.38;;;8.80;99.90;;;;;;5042400;28;21026;-66
2023/12/11 05:00:37;;;;;;;40.28;5.15;;;8.80;99.90;;;;;;5050215;28;20048;-66
2023/12/11 05:03:03;;;;;;;42.17;5.28;;;8.80;99.90;;;;;;5031372;28;20088;-66
2023/12/11 05:05:29;;;;;;;46.55;5.60;;;8.80;99.90;;;;;;5036660;28;20057;-66
2023/12/11 05:07:54;;;;;;;39.95;4.75;;;8.80;99.90;;;;;;5041208;28;20414;-65
2023/12/11 05:10:20;;;;;;;47.53;5.47;;;8.80;99.90;;;;;;5034748;28;20076;-66
2023/12/11 05:12:46;;;;;;;44.20;5.82;;;9.20;99.90;;;;;;5040713;28;20430;-67
2023/12/11 05:15:12;;;;;;;40.47;5.45;;;8.80;99.90;;;;;;5042276;28;20072;-66
2023/12/11 05:17:38;;;;;;;56.80;6.72;;;8.80;99.90;;;;;;5037754;28;20131;-66
2023/12/11 05:20:04;;;;;;;44.35;6.00;;;8.80;99.90;;;;;;5040132;28;20106;-66
2023/12/11 05:22:29;;;;;;;42.60;6.25;;;8.80;99.90;;;;;;5044140;28;20091;-67
2023/12/11 05:24:55;;;;;;;44.10;5.28;;;8.80;99.90;;;;;;5037372;28;20041;-66
2023/12/11 05:27:21;;;;;;;50.53;5.78;;;8.80;99.90;;;;;;5041720;28;20398;-66
2023/12/11 05:29:47;;;;;;;49.38;6.05;;;8.80;99.90;;;;;;5043062;28;20053;-66
2023/12/11 05:32:14;;;;;;;43.33;5.15;;;8.80;99.90;;;;;;5041310;28;20057;-66
2023/12/11 05:34:39;;;;;;;37.42;5.32;;;8.80;99.90;;;;;;5030623;28;20127;-67
2023/12/11 05:37:05;;;;;;;34.20;5.00;;;8.70;99.90;;;;;;5042048;28;20128;-66
2023/12/11 05:39:31;;;;;;;35.13;5.70;;;8.70;99.90;;;;;;5047704;28;20048;-66
2023/12/11 05:41:57;;;;;;;47.63;5.68;;;8.70;99.90;;;;;;5036268;28;20521;-66
2023/12/11 05:44:22;;;;;;;45.88;6.60;;;8.80;99.90;;;;;;5028729;28;20494;-66
2023/12/11 05:46:48;;;;;;;38.75;5.00;;;8.80;99.90;;;;;;5026443;28;20055;-66
2023/12/11 05:49:14;;;;;;;38.38;5.75;;;8.80;99.90;;;;;;5039673;28;20045;-66
2023/12/11 05:51:40;;;;;;;40.10;4.28;;;8.80;99.90;;;;;;5045478;28;20485;-66
2023/12/11 05:54:06;;;;;;;33.85;4.82;;;8.80;99.90;;;;;;5030427;28;20052;-66
2023/12/11 05:56:32;;;;;;;39.92;5.20;;;8.80;99.90;;;;;;5035697;28;20044;-66
2023/12/11 05:58:59;;;;;;;39.00;4.97;;;8.80;99.90;;;;;;5035390;28;20041;-67
2023/12/11 06:01:26;;;;;;;37.10;4.93;;;8.80;99.90;;;;;;5042382;28;20060;-66
2023/12/11 06:03:51;;;;;;;41.17;5.03;;;8.70;99.90;;;;;;5027172;28;20080;-66
2023/12/11 06:06:17;;;;;;;35.47;4.90;;;8.70;99.90;;;;;;5045854;28;20079;-66
2023/12/11 06:08:44;;;;;;;35.22;4.65;;;8.70;99.90;;;;;;5046103;28;20064;-66
2023/12/11 06:11:10;;;;;;;38.72;5.57;;;8.70;99.90;;;;;;5056813;28;20053;-65
2023/12/11 06:13:36;;;;;;;33.08;4.28;;;8.80;99.90;;;;;;5031817;28;20053;-65
2023/12/11 06:16:02;;;;;;;41.53;6.25;;;8.80;99.90;;;;;;5039649;28;20037;-66
2023/12/11 06:18:28;;;;;;;35.75;5.07;;;8.70;99.90;;;;;;5029186;28;20156;-66
2023/12/11 06:20:54;;;;;;;42.95;5.78;;;8.70;99.90;;;;;;5032241;28;20057;-66
2023/12/11 06:23:22;;;;;;;33.47;4.88;;;8.70;99.90;;;;;;5035352;28;20556;-65
2023/12/11 06:25:48;;;;;;;37.85;4.78;;;8.70;99.90;;;;;;5017376;28;20041;-65
2023/12/11 06:28:13;;;;;;;43.83;5.20;;;8.70;99.90;;;;;;5031728;28;20502;-66
2023/12/11 06:30:39;;;;;;;39.65;5.28;;;8.70;99.90;;;;;;5029482;28;20041;-66
2023/12/11 06:33:05;;;;;;;35.90;5.00;;;8.70;99.90;;;;;;5031261;28;20040;-65
2023/12/11 06:35:31;;;;;;;40.65;5.50;;;8.70;99.90;;;;;;5015756;28;20068;-65
2023/12/11 06:37:57;;;;;;;29.50;4.78;;;8.70;99.90;;;;;;5036184;28;20038;-66
2023/12/11 06:40:22;;;;;;;41.80;5.13;;;8.70;99.90;;;;;;5030756;28;20049;-66
2023/12/11 06:42:48;;;;;;;42.33;5.65;;;8.70;99.90;;;;;;5034915;28;20848;-65
2023/12/11 06:45:14;;;;;;;38.30;5.35;;;8.70;99.90;;;;;;5029336;28;20147;-66
2023/12/11 06:47:40;;;;;;;31.35;4.90;;;8.70;99.90;;;;;;5032928;28;20510;-66
2023/12/11 06:50:06;;;;;;;40.38;5.50;;;8.70;99.90;;;;;;5045378;28;20142;-66
2023/12/11 06:52:32;;;;;;;42.80;5.22;;;8.70;99.90;;;;;;5022004;28;20068;-65
2023/12/11 06:54:58;;;;;;;43.42;5.47;;;8.70;99.90;;;;;;5027711;28;20153;-66
2023/12/11 06:57:23;;;;;;;34.10;5.25;;;8.70;99.90;;;;;;5034645;28;20160;-65
2023/12/11 06:59:49;;;;;;;26.83;4.53;;;8.70;99.90;;;;;;5032449;28;20099;-66
2023/12/11 07:02:15;;;;;;;37.33;5.07;;;8.70;99.90;;;;;;5037879;28;20106;-66
2023/12/11 07:04:41;;;;;;;37.55;5.15;;;8.70;99.90;;;;;;5036332;28;20076;-66
2023/12/11 07:07:07;;;;;;;37.50;4.97;;;8.70;99.90;;;;;;5056026;28;20047;-66
2023/12/11 07:09:33;;;;;;;28.73;4.40;;;8.70;99.90;;;;;;5031954;28;21204;-65
2023/12/11 07:11:59;;;;;;;28.77;5.05;;;8.70;99.90;;;;;;5041843;28;20080;-66
2023/12/11 07:14:25;;;;;;;33.10;4.40;;;8.70;99.90;;;;;;5036630;28;20069;-66
2023/12/11 07:16:51;;;;;;;32.15;4.03;;;8.70;99.90;;;;;;5052051;28;20498;-67
2023/12/11 07:19:19;;;;;;;28.77;4.55;;;8.70;99.90;;;;;;5041099;28;20034;-66
2023/12/11 07:21:45;;;;;;;28.70;4.25;;;8.70;99.90;;;;;;5033441;28;20084;-66
2023/12/11 07:24:11;;;;;;;27.20;3.67;;;8.70;99.90;;;;;;5017158;28;20061;-66
2023/12/11 07:26:37;;;;;;;28.35;3.75;;;8.70;99.90;;;;;;5036591;28;20045;-66
2023/12/11 07:29:04;;;;;;;23.15;3.45;;;8.70;99.90;;;;;;5034481;28;20044;-66
2023/12/11 07:31:30;;;;;;;21.33;3.33;;;8.70;99.90;;;;;;5033085;28;20045;-66
2023/12/11 07:33:56;;;;;;;27.60;3.00;;;8.70;99.90;;;;;;5032846;28;20088;-66
2023/12/11 07:36:23;;;;;;;23.42;3.65;;;8.70;99.90;;;;;;5034216;28;20437;-66
2023/12/11 07:38:49;;;;;;;26.58;3.50;;;8.70;99.90;;;;;;5037203;28;20033;-66
2023/12/11 07:41:22;;;;;;;19.58;3.05;;;8.70;99.90;;;;;;5029875;28;20057;-66
2023/12/11 07:43:48;;;;;;;21.48;3.78;;;8.70;99.90;;;;;;5027770;28;20044;-66
2023/12/11 07:46:18;;;;;;;20.67;2.95;;;8.70;99.90;;;;;;5032491;28;20065;-66
2023/12/11 07:48:44;;;;;;;23.98;3.47;;;8.70;99.90;;;;;;5021938;28;20110;-66
2023/12/11 07:51:21;;;;;;;24.95;3.33;;;8.70;99.90;;;;;;5035121;28;20537;-66
2023/12/11 07:53:47;;;;;;;24.33;3.38;;;8.70;99.90;;;;;;5032738;28;20049;-66
2023/12/11 07:56:23;;;;;;;22.98;3.50;;;8.70;99.90;;;;;;5027960;28;20079;-65
2023/12/11 07:58:53;;;;;;;16.13;2.97;;;8.70;99.90;;;;;;5007441;28;20045;-66
2023/12/11 08:01:19;;;;;;;23.90;3.47;;;8.70;99.90;;;;;;5028076;28;20033;-66
2023/12/11 08:03:45;;;;;;;23.50;3.53;;;8.70;99.90;;;;;;5029291;28;20055;-66
2023/12/11 08:06:11;;;;;;;19.23;3.15;;;8.70;99.90;;;;;;5046899;28;20045;-67
2023/12/11 08:08:43;;;;;;;20.35;3.50;;;8.70;99.90;;;;;;5029940;28;20080;-65
2023/12/11 08:11:15;;;;;;;;;;;8.70;99.90;;;;;;5053167;28;20065;-66
2023/12/11 08:13:42;;;;;;;18.38;2.55;;;8.70;99.90;;;;;;5043017;28;19929;-66
2023/12/11 08:16:08;;;;;;;16.98;2.33;;;8.70;99.90;;;;;;5022844;28;20128;-66
2023/12/11 08:18:34;;;;;;;20.00;2.65;;;8.70;99.90;;;;;;5037010;28;20048;-66
2023/12/11 08:21:00;;;;;;;15.65;2.67;;;8.70;99.90;;;;;;5041911;28;20048;-67
2023/12/11 08:23:25;;;;;;;14.13;3.17;;;8.80;99.90;;;;;;5039989;28;20037;-66
2023/12/11 08:25:51;;;;;;;15.90;2.70;;;8.70;99.90;;;;;;5042361;28;20077;-66
2023/12/11 08:28:17;;;;;;;16.80;3.15;;;8.70;99.90;;;;;;5035376;28;20067;-67
2023/12/11 08:30:43;;;;;;;12.07;2.50;;;8.70;99.90;;;;;;5038926;28;20049;-68
2023/12/11 08:33:08;;;;;;;15.13;2.58;;;8.70;99.90;;;;;;5043562;28;20115;-66
2023/12/11 08:35:34;;;;;;;16.08;2.47;;;8.70;99.90;;;;;;5039675;28;20136;-66
2023/12/11 08:38:00;;;;;;;18.75;2.92;;;8.70;99.90;;;;;;5020998;28;20049;-67
2023/12/11 08:40:26;;;;;;;19.65;3.20;;;8.70;99.90;;;;;;5037611;28;20079;-66
2023/12/11 08:42:52;;;;;;;23.08;3.72;;;8.70;99.90;;;;;;5016430;28;20153;-66
2023/12/11 08:45:17;;;;;;;18.77;3.25;;;8.70;99.90;;;;;;5034821;28;20116;-66
2023/12/11 08:47:43;;;;;;;14.52;3.25;;;8.70;99.90;;;;;;5040215;28;20132;-66
2023/12/11 08:50:09;;;;;;;19.70;3.50;;;8.70;99.90;;;;;;5046188;28;20067;-66
2023/12/11 08:52:37;;;;;;;21.20;3.67;;;8.70;99.90;;;;;;5031802;28;20611;-69
2023/12/11 08:55:03;;;;;;;19.85;3.15;;;8.70;99.90;;;;;;5039145;28;20648;-66
2023/12/11 08:57:28;;;;;;;15.80;3.03;;;8.70;99.90;;;;;;5031262;28;20095;-66
2023/12/11 08:59:54;;;;;;;15.13;3.53;;;8.70;99.90;;;;;;5036379;28;20514;-66
2023/12/11 09:02:20;;;;;;;18.13;3.30;;;8.70;99.90;;;;;;5031332;28;20679;-66
2023/12/11 09:04:49;;;;;;;21.92;3.95;;;8.80;99.90;;;;;;5033830;28;20106;-66
2023/12/11 09:07:14;;;;;;;17.58;3.88;;;8.80;99.90;;;;;;5031787;28;20037;-66
2023/12/11 09:09:40;;;;;;;19.13;3.47;;;8.80;99.90;;;;;;5013713;28;20085;-66
2023/12/11 09:12:06;;;;;;;18.02;3.72;;;8.80;99.90;;;;;;5030034;28;20106;-66
2023/12/11 09:14:35;;;;;;;22.20;3.83;;;8.80;99.90;;;;;;5029462;28;20128;-66
2023/12/11 09:17:01;;;;;;;16.63;3.53;;;8.80;99.90;;;;;;5026256;28;20057;-66
2023/12/11 09:19:28;;;;;;;21.15;3.58;;;8.80;99.90;;;;;;5031352;28;20405;-66
2023/12/11 09:21:54;;;;;;;21.73;3.97;;;8.80;99.90;;;;;;5032772;28;20049;-67
2023/12/11 09:24:20;;;;;;;16.73;3.08;;;8.80;99.90;;;;;;5033231;28;20384;-66
2023/12/11 09:26:45;;;;;;;20.00;4.25;;;8.80;99.90;;;;;;5048265;28;20044;-65
2023/12/11 09:29:11;;;;;;;24.98;3.45;;;8.80;99.90;;;;;;5020953;28;20084;-66
2023/12/11 09:31:38;;;;;;;22.05;3.80;;;8.80;99.90;;;;;;5032091;28;20106;-66
2023/12/11 09:34:04;;;;;;;26.02;3.85;;;8.80;99.90;;;;;;5033425;28;20044;-66
2023/12/11 09:36:29;;;;;;;23.80;3.70;;;8.80;99.90;;;;;;5040118;28;20110;-67
2023/12/11 09:38:58;;;;;;;22.50;3.45;;;8.80;99.90;;;;;;5033841;28;20036;-66
2023/12/11 09:41:33;;;;;;;21.42;4.22;;;8.80;99.90;;;;;;5012820;28;20112;-66
2023/12/11 09:44:00;;;;;;;18.95;3.83;;;8.90;99.90;;;;;;5017935;28;20049;-66
2023/12/11 09:46:29;;;;;;;18.83;3.55;;;8.90;99.90;;;;;;5034127;28;20047;-66
2023/12/11 09:48:54;;;;;;;21.27;3.67;;;8.90;99.90;;;;;;5029197;28;20080;-66
2023/12/11 09:51:21;;;;;;;32.60;4.72;;;8.90;99.90;;;;;;5030718;28;20989;-67
2023/12/11 09:53:48;;;;;;;21.90;4.07;;;8.90;99.90;;;;;;5029655;28;20057;-66
2023/12/11 09:56:15;;;;;;;19.60;3.10;;;8.90;99.90;;;;;;5016659;28;20102;-66
2023/12/11 09:58:43;;;;;;;27.20;3.80;;;8.90;99.90;;;;;;5031918;28;20056;-66
2023/12/11 10:01:12;;;;;;;18.85;2.55;;;8.90;99.90;;;;;;5029976;28;20084;-66
2023/12/11 10:03:39;;;;;;;16.77;2.22;;;9.00;99.90;;;;;;5036905;28;20126;-66
2023/12/11 10:06:05;;;;;;;13.70;2.13;;;8.90;99.90;;;;;;5037710;28;20343;-66
2023/12/11 10:08:42;;;;;;;20.08;1.77;;;9.00;99.90;;;;;;5037356;28;20072;-66
2023/12/11 10:11:11;;;;;;;15.60;2.45;;;9.00;99.90;;;;;;5045055;28;20132;-66
2023/12/11 10:13:37;;;;;;;12.55;1.77;;;9.00;99.90;;;;;;5020594;28;20052;-66
2023/12/11 10:16:05;;;;;;;8.50;1.58;;;8.90;99.90;;;;;;5038207;28;20041;-67
2023/12/11 10:18:31;;;;;;;11.63;1.60;;;8.90;99.90;;;;;;5031752;28;20107;-66
2023/12/11 10:20:58;;;;;;;14.80;1.83;;;8.90;99.90;;;;;;5035367;28;20049;-66
2023/12/11 10:23:25;;;;;;;22.05;2.30;;;9.00;99.90;;;;;;5028210;28;20071;-66
2023/12/11 10:25:53;;;;;;;19.45;2.17;;;8.90;99.90;;;;;;5040007;28;20110;-66
2023/12/11 10:28:20;;;;;;;22.85;2.13;;;8.90;99.90;;;;;;5040097;28;20110;-67
2023/12/11 10:30:53;;;;;;;17.05;2.75;;;9.00;99.90;;;;;;5038822;28;20072;-68
2023/12/11 10:33:19;;;;;;;27.85;2.85;;;9.00;99.90;;;;;;5034867;28;20063;-67
2023/12/11 10:35:46;;;;;;;23.70;2.60;;;9.00;99.90;;;;;;5037746;28;20045;-68
2023/12/11 10:38:25;;;;;;;20.55;3.17;;;9.00;99.90;;;;;;5038181;28;20045;-68
2023/12/11 10:40:52;;;;;;;22.25;3.30;;;9.00;99.90;;;;;;5049208;28;20049;-68
2023/12/11 10:43:19;;;;;;;24.08;2.80;;;9.10;99.90;;;;;;5040578;28;20067;-68
2023/12/11 10:45:45;;;;;;;22.48;3.92;;;9.10;99.90;;;;;;5038103;28;20044;-67
2023/12/11 10:48:11;;;;;;;25.48;3.53;;;9.10;99.90;;;;;;5033992;28;20076;-68
2023/12/11 10:50:37;;;;;;;21.20;3.22;;;9.10;99.90;;;;;;5018171;28;20088;-67
2023/12/11 10:53:03;;;;;;;28.58;3.83;;;9.10;99.90;;;;;;5043096;28;20049;-69
2023/12/11 10:55:33;;;;;;;22.75;3.13;;;9.10;99.90;;;;;;5031758;28;20556;-67
2023/12/11 10:58:01;;;;;;;29.98;2.90;;;9.10;99.90;;;;;;5049946;28;20049;-68
2023/12/11 11:00:30;;;;;;;24.95;2.97;;;9.10;99.90;;;;;;5025386;28;20088;-69
2023/12/11 11:02:57;;;;;;;21.17;3.17;;;9.20;99.90;;;;;;5037185;28;20052;-69
2023/12/11 11:05:25;;;;;;;25.00;3.45;;;9.20;99.90;;;;;;5042964;28;20040;-68
2023/12/11 11:08:00;;;;;;;20.00;2.90;;;9.20;99.90;;;;;;5039795;28;20156;-68
2023/12/11 11:10:34;;;;;;;24.83;3.47;;;9.20;99.90;;;;;;5036632;28;20103;-68
2023/12/11 11:13:08;;;;;;;26.88;3.22;;;9.20;99.90;;;;;;5040454;28;20040;-69
2023/12/11 11:15:34;;;;;;;19.13;3.47;;;9.20;99.90;;;;;;5054027;28;20528;-68
2023/12/11 11:18:09;;;;;;;16.60;2.40;;;9.20;99.90;;;;;;5049685;28;20084;-69
2023/12/11 11:20:39;;;;;;;15.73;2.70;;;9.20;99.90;;;;;;5021975;28;20057;-67
2023/12/11 11:23:13;;;;;;;15.38;1.90;;;9.10;99.90;;;;;;5032931;28;20683;-66
2023/12/11 11:25:40;;;;;;;11.45;2.08;;;9.20;99.90;;;;;;5035533;28;20040;-67
2023/12/11 11:28:06;;;;;;;16.25;1.67;;;9.10;99.90;;;;;;5036599;28;20049;-67
2023/12/11 11:30:58;;;;;;;16.73;1.77;;;9.20;99.90;;;;;;5028942;28;20053;-66
2023/12/11 11:33:24;;;;;;;9.77;1.60;;;9.10;99.90;;;;;;5032099;28;20057;-67
2023/12/11 11:35:52;;;;;;;16.98;2.55;;;9.10;99.90;;;;;;5041532;28;20488;-66
2023/12/11 11:38:19;;;;;;;19.40;1.70;;;9.10;99.90;;;;;;5035577;28;20080;-73
2023/12/11 11:40:48;;;;;;;14.50;1.73;;;9.00;99.90;;;;;;5024749;28;20048;-66
2023/12/11 11:43:14;;;;;;;12.68;1.40;;;9.00;99.90;;;;;;5024707;28;20095;-67
2023/12/11 11:45:41;;;;;;;10.00;1.50;;;9.00;99.90;;;;;;5036896;28;20064;-67
2023/12/11 11:48:06;;;;;;;13.93;2.03;;;9.00;99.90;;;;;;5017179;28;20052;-67
2023/12/11 11:50:32;;;;;;;11.38;1.52;;;9.00;99.90;;;;;;5031893;28;20052;-67
2023/12/11 11:53:08;;;;;;;14.38;1.88;;;9.00;99.90;;;;;;5037359;28;20132;-67
2023/12/11 11:55:37;;;;;;;11.18;1.65;;;9.00;99.90;;;;;;5044279;28;20045;-70
2023/12/11 11:58:14;;;;;;;13.68;1.50;;;9.00;99.90;;;;;;5033276;28;20044;-67
2023/12/11 12:00:41;;;;;;;12.07;1.58;;;9.00;99.90;;;;;;5021829;28;20061;-68
2023/12/11 12:03:08;;;;;;;13.35;2.55;;;9.00;99.90;;;;;;5024854;28;20110;-68
2023/12/11 12:05:38;;;;;;;14.82;2.00;;;9.00;99.90;;;;;;5039480;28;20434;-67
2023/12/11 12:08:08;;;;;;;17.23;2.65;;;9.20;99.90;;;;;;5040316;28;20103;-68
2023/12/11 12:10:34;;;;;;;17.60;3.25;;;8.70;99.90;;;;;;5037497;28;20056;-68
2023/12/11 12:13:01;;;;;;;17.83;2.50;;;9.00;99.90;;;;;;5044403;28;20048;-68
2023/12/11 12:15:27;;;;;;;23.58;3.17;;;9.00;99.90;;;;;;5038926;28;20040;-68
2023/12/11 12:18:04;;;;;;;18.10;3.45;;;9.00;99.90;;;;;;5033041;28;20041;-67
2023/12/11 12:20:30;;;;;;;19.70;3.08;;;9.00;99.90;;;;;;5035276;28;20140;-67
2023/12/11 12:23:08;;;;;;;29.35;3.45;;;9.00;99.90;;;;;;5037807;28;20116;-67
2023/12/11 12:25:35;;;;;;;23.67;3.70;;;9.00;99.90;;;;;;5049085;28;20047;-67
2023/12/11 12:28:13;;;;;;;14.50;2.65;;;9.10;99.90;;;;;;5036639;28;20045;-67
2023/12/11 12:30:39;;;;;;;18.52;2.55;;;8.90;99.90;;;;;;5046232;28;20049;-67
2023/12/11 12:33:09;;;;;;;18.92;2.67;;;8.90;99.90;;;;;;5058099;28;20132;-68
2023/12/11 12:35:36;;;;;;;22.48;2.97;;;8.80;99.90;;;;;;5046176;28;20080;-68
2023/12/11 12:38:04;;;;;;;20.60;2.25;;;8.80;99.90;;;;;;5047805;28;20429;-67
2023/12/11 12:40:34;;;;;;;18.33;2.17;;;8.80;99.90;;;;;;5032152;28;20045;-67
2023/12/11 12:43:09;;;;;;;18.42;2.72;;;8.70;99.90;;;;;;5035776;28;20091;-67
2023/12/11 12:45:34;;;;;;;20.35;2.30;;;8.70;99.90;;;;;;5049546;28;20127;-67